Time;durP1;ratioP1;P1;durP2;ratioP2;P2;SDS_P1;SDS_P2;PMS_P1;PMS_P2;Temp;Humidity;BMP_temperature;BMP_pressure;BME280_temperature;BME280_humidity;BME280_pressure;Samples;Min_cycle;Max_cycle;Signal;HPM_P1;HPM_P2
2021/03/02 00:00:10;;;;;;;0.30;0.30;;;3.90;99.90;;;;;;5055123;28;20217;-65
2021/03/02 00:02:40;;;;;;;0.40;0.40;;;3.90;99.90;;;;;;5057237;28;20173;-65
2021/03/02 00:05:09;;;;;;;0.32;0.32;;;3.80;99.90;;;;;;5052563;28;20196;-65
2021/03/02 00:07:35;;;;;;;0.40;0.40;;;3.80;99.90;;;;;;5068431;28;20184;-65
2021/03/02 00:10:12;;;;;;;1.13;1.13;;;3.70;99.90;;;;;;5072719;28;20651;-65
2021/03/02 00:12:39;;;;;;;0.40;0.40;;;3.60;99.90;;;;;;5052613;28;20548;-65
2021/03/02 00:15:07;;;;;;;0.30;0.30;;;3.60;99.90;;;;;;5056372;28;20208;-66
2021/03/02 00:17:51;;;;;;;0.50;0.50;;;3.50;99.90;;;;;;5052572;28;20209;-66
2021/03/02 00:20:20;;;;;;;0.30;0.30;;;3.50;99.90;;;;;;5051669;28;20177;-64
2021/03/02 00:23:07;;;;;;;0.40;0.40;;;3.50;99.90;;;;;;5052822;28;20261;-65
2021/03/02 00:25:40;;;;;;;0.40;0.40;;;3.40;99.90;;;;;;5053299;28;20190;-66
2021/03/02 00:28:07;;;;;;;0.30;0.30;;;3.40;99.90;;;;;;5072585;28;20197;-65
2021/03/02 00:30:34;;;;;;;0.50;0.50;;;3.40;99.90;;;;;;5068010;28;20176;-66
2021/03/02 00:33:01;;;;;;;0.30;0.30;;;3.30;99.90;;;;;;5072889;28;20536;-65
2021/03/02 00:35:27;;;;;;;0.30;0.30;;;3.30;99.90;;;;;;5055739;28;20673;-66
2021/03/02 00:37:53;;;;;;;0.40;0.40;;;3.20;99.90;;;;;;5052568;28;20534;-66
2021/03/02 00:40:19;;;;;;;0.40;0.40;;;3.20;99.90;;;;;;5065564;28;20231;-66
2021/03/02 00:42:45;;;;;;;0.83;0.83;;;3.20;99.90;;;;;;5072586;28;20165;-65
2021/03/02 00:45:11;;;;;;;0.50;0.50;;;3.10;99.90;;;;;;5061579;28;20220;-65
2021/03/02 00:47:37;;;;;;;0.30;0.30;;;3.10;99.90;;;;;;5056207;28;20197;-66
2021/03/02 00:50:08;;;;;;;0.40;0.40;;;3.10;99.90;;;;;;5066091;28;20169;-65
2021/03/02 00:52:34;;;;;;;0.30;0.30;;;3.00;99.90;;;;;;5070522;28;20818;-65
2021/03/02 00:55:00;;;;;;;0.40;0.40;;;2.90;99.90;;;;;;5055409;28;20209;-66
2021/03/02 00:57:26;;;;;;;0.30;0.30;;;3.00;99.90;;;;;;5059971;28;20184;-65
2021/03/02 00:59:52;;;;;;;0.70;0.70;;;2.90;99.90;;;;;;5069444;28;20207;-66
2021/03/02 01:02:18;;;;;;;0.40;0.40;;;2.80;99.90;;;;;;5057794;28;20166;-64
2021/03/02 01:04:43;;;;;;;1.27;1.03;;;2.90;99.90;;;;;;5075356;28;20255;-65
2021/03/02 01:07:09;;;;;;;0.40;0.40;;;2.90;99.90;;;;;;5075252;28;20701;-66
2021/03/02 01:09:35;;;;;;;1.73;1.63;;;2.90;99.90;;;;;;5071913;28;20173;-65
2021/03/02 01:12:01;;;;;;;0.30;0.30;;;2.80;99.90;;;;;;5075853;28;20528;-66
2021/03/02 01:14:28;;;;;;;0.40;0.40;;;2.80;99.90;;;;;;5056424;28;20169;-65
2021/03/02 01:16:55;;;;;;;0.55;0.55;;;2.80;99.90;;;;;;5064078;28;20451;-65
2021/03/02 01:19:20;;;;;;;0.40;0.40;;;2.70;99.90;;;;;;5071798;28;20235;-65
2021/03/02 01:21:46;;;;;;;0.30;0.30;;;2.70;99.90;;;;;;5062305;28;20168;-65
2021/03/02 01:24:12;;;;;;;0.40;0.40;;;2.70;99.90;;;;;;5075229;28;20636;-66
2021/03/02 01:26:38;;;;;;;0.50;0.50;;;2.70;99.90;;;;;;5069745;28;20803;-65
2021/03/02 01:29:04;;;;;;;0.30;0.30;;;2.70;99.90;;;;;;5055255;28;20314;-66
2021/03/02 01:31:30;;;;;;;0.30;0.30;;;2.70;99.90;;;;;;5056693;28;20165;-66
2021/03/02 01:33:55;;;;;;;0.50;0.50;;;2.70;99.90;;;;;;5054899;28;20172;-66
2021/03/02 01:36:21;;;;;;;0.40;0.40;;;2.70;99.90;;;;;;5068354;28;20193;-66
2021/03/02 01:38:47;;;;;;;0.50;0.50;;;2.70;99.90;;;;;;5055318;28;20211;-66
2021/03/02 01:41:13;;;;;;;0.70;0.70;;;2.70;99.90;;;;;;5059432;28;20184;-65
2021/03/02 01:43:39;;;;;;;0.30;0.30;;;2.60;99.90;;;;;;5074738;28;20176;-67
2021/03/02 01:46:06;;;;;;;1.37;0.83;;;2.60;99.90;;;;;;5071439;28;20254;-65
2021/03/02 01:48:36;;;;;;;0.40;0.40;;;2.60;99.90;;;;;;5054943;28;20201;-66
2021/03/02 01:51:04;;;;;;;0.30;0.30;;;2.50;99.90;;;;;;5056112;28;20158;-66
2021/03/02 01:53:30;;;;;;;0.30;0.30;;;2.50;99.90;;;;;;5054741;28;20695;-65
2021/03/02 01:55:57;;;;;;;0.40;0.40;;;2.50;99.90;;;;;;5062384;28;20209;-65
2021/03/02 01:58:24;;;;;;;0.40;0.40;;;2.50;99.90;;;;;;5053907;28;20227;-65
2021/03/02 02:00:53;;;;;;;0.50;0.50;;;2.50;99.90;;;;;;5066158;28;20180;-64
2021/03/02 02:03:28;;;;;;;0.30;0.30;;;2.50;99.90;;;;;;5074929;28;20422;-65
2021/03/02 02:06:08;;;;;;;0.43;0.43;;;2.50;99.90;;;;;;5061536;28;20251;-65
2021/03/02 02:08:58;;;;;;;0.30;0.30;;;2.50;99.90;;;;;;5054522;28;20228;-65
2021/03/02 02:11:53;;;;;;;0.40;0.40;;;2.50;99.90;;;;;;5056445;28;20200;-65
2021/03/02 02:14:25;;;;;;;0.40;0.40;;;2.40;99.90;;;;;;5054230;28;20161;-65
2021/03/02 02:16:54;;;;;;;0.50;0.50;;;2.30;99.90;;;;;;5073173;28;20259;-64
2021/03/02 02:19:35;;;;;;;0.73;0.73;;;2.30;99.90;;;;;;5073411;28;20234;-65
2021/03/02 02:22:22;;;;;;;0.50;0.50;;;2.20;99.90;;;;;;5063995;28;20239;-64
2021/03/02 02:25:08;;;;;;;1.02;0.95;;;2.20;99.90;;;;;;5069069;28;20570;-64
2021/03/02 02:27:34;;;;;;;1.52;1.15;;;2.30;99.90;;;;;;5054192;28;20653;-65
2021/03/02 02:30:01;;;;;;;0.40;0.40;;;2.20;99.90;;;;;;5059717;28;20226;-66
2021/03/02 02:32:29;;;;;;;0.40;0.40;;;2.20;99.90;;;;;;5074275;28;20406;-65
2021/03/02 02:34:56;;;;;;;0.50;0.50;;;2.20;99.90;;;;;;5063955;28;20683;-66
2021/03/02 02:37:25;;;;;;;0.47;0.47;;;2.10;99.90;;;;;;5074114;28;20181;-65
2021/03/02 02:39:52;;;;;;;0.40;0.40;;;2.20;99.90;;;;;;5056484;28;20177;-64
2021/03/02 02:42:19;;;;;;;0.40;0.40;;;2.10;99.90;;;;;;5054021;28;20490;-65
2021/03/02 02:44:47;;;;;;;0.40;0.40;;;2.10;99.90;;;;;;5068873;28;20632;-66
2021/03/02 02:47:15;;;;;;;0.40;0.40;;;2.20;99.90;;;;;;5061244;28;20238;-66
2021/03/02 02:49:41;;;;;;;0.40;0.40;;;2.20;99.90;;;;;;5068123;28;20532;-65
2021/03/02 02:52:07;;;;;;;0.40;0.40;;;2.20;99.90;;;;;;5073974;28;20251;-64
2021/03/02 02:54:34;;;;;;;0.40;0.40;;;2.10;99.90;;;;;;5059940;28;20224;-65
2021/03/02 02:57:00;;;;;;;0.30;0.30;;;2.10;99.90;;;;;;5053775;28;20257;-65
2021/03/02 02:59:38;;;;;;;0.50;0.50;;;2.20;99.90;;;;;;5054588;28;20256;-64
2021/03/02 03:02:08;;;;;;;0.40;0.40;;;2.10;99.90;;;;;;5053807;28;20518;-65
2021/03/02 03:04:41;;;;;;;0.50;0.50;;;2.10;99.90;;;;;;5053602;28;20598;-65
2021/03/02 03:07:14;;;;;;;0.40;0.40;;;2.00;99.90;;;;;;5061282;28;20173;-64
2021/03/02 03:09:42;;;;;;;0.40;0.40;;;2.00;99.90;;;;;;5053383;28;20165;-64
2021/03/02 03:12:09;;;;;;;0.40;0.40;;;1.90;99.90;;;;;;5055604;28;20586;-64
2021/03/02 03:14:41;;;;;;;0.40;0.40;;;1.90;99.90;;;;;;5072717;28;20181;-65
2021/03/02 03:17:09;;;;;;;2.20;2.10;;;1.80;99.90;;;;;;5071556;28;20172;-66
2021/03/02 03:19:35;;;;;;;0.40;0.40;;;1.90;99.90;;;;;;5053393;28;20185;-65
2021/03/02 03:22:02;;;;;;;0.40;0.40;;;1.80;99.90;;;;;;5054449;28;20268;-67
2021/03/02 03:24:30;;;;;;;0.50;0.50;;;1.80;99.90;;;;;;5073136;28;20260;-65
2021/03/02 03:26:57;;;;;;;0.40;0.40;;;1.80;99.90;;;;;;5058664;28;20197;-65
2021/03/02 03:29:25;;;;;;;0.40;0.40;;;1.70;99.90;;;;;;5071904;28;20207;-65
2021/03/02 03:31:52;;;;;;;0.40;0.40;;;1.70;99.90;;;;;;5073320;28;20173;-66
2021/03/02 03:34:18;;;;;;;0.40;0.40;;;1.70;99.90;;;;;;5054447;28;20224;-64
2021/03/02 03:36:45;;;;;;;0.30;0.30;;;1.60;99.90;;;;;;5053311;28;20197;-64
2021/03/02 03:39:11;;;;;;;0.30;0.30;;;1.60;99.90;;;;;;5069435;28;20192;-65
2021/03/02 03:41:38;;;;;;;0.40;0.40;;;1.60;99.90;;;;;;5073436;28;20255;-65
2021/03/02 03:44:04;;;;;;;0.70;0.70;;;1.50;99.90;;;;;;5057409;28;20181;-66
2021/03/02 03:46:30;;;;;;;0.30;0.30;;;1.50;99.90;;;;;;5053088;28;20275;-65
2021/03/02 03:48:55;;;;;;;0.40;0.40;;;1.50;99.90;;;;;;5066134;28;20896;-65
2021/03/02 03:51:25;;;;;;;0.40;0.40;;;1.50;99.90;;;;;;5073175;28;20694;-65
2021/03/02 03:53:51;;;;;;;0.38;0.38;;;1.40;99.90;;;;;;5063453;28;20175;-65
2021/03/02 03:56:19;;;;;;;0.30;0.30;;;1.40;99.90;;;;;;5070759;28;20200;-66
2021/03/02 03:58:46;;;;;;;0.40;0.40;;;1.40;99.90;;;;;;5053043;28;20209;-65
2021/03/02 04:01:12;;;;;;;0.40;0.40;;;1.40;99.90;;;;;;5062460;28;20173;-65
2021/03/02 04:03:39;;;;;;;0.40;0.40;;;1.30;99.90;;;;;;5052997;28;20568;-66
2021/03/02 04:06:06;;;;;;;0.43;0.43;;;1.30;99.90;;;;;;5063378;28;20200;-65
2021/03/02 04:08:32;;;;;;;0.35;0.35;;;1.40;99.90;;;;;;5072971;28;20185;-65
2021/03/02 04:10:59;;;;;;;0.68;0.68;;;1.30;99.90;;;;;;5061628;28;20692;-66
2021/03/02 04:13:27;;;;;;;0.30;0.30;;;1.30;99.90;;;;;;5052837;28;20165;-66
2021/03/02 04:15:53;;;;;;;0.40;0.40;;;1.30;99.90;;;;;;5060217;28;20198;-66
2021/03/02 04:18:18;;;;;;;0.30;0.30;;;1.30;99.90;;;;;;5071642;28;20187;-65
2021/03/02 04:20:46;;;;;;;0.47;0.47;;;1.30;99.90;;;;;;5072295;28;20884;-65
2021/03/02 04:23:12;;;;;;;0.30;0.30;;;1.30;99.90;;;;;;5075517;28;20640;-65
2021/03/02 04:25:38;;;;;;;0.60;0.60;;;1.30;99.90;;;;;;5074068;28;20192;-65
2021/03/02 04:28:04;;;;;;;0.30;0.30;;;1.30;99.90;;;;;;5060447;28;20273;-65
2021/03/02 04:30:31;;;;;;;0.40;0.40;;;1.30;99.90;;;;;;5060008;28;20282;-66
2021/03/02 04:32:56;;;;;;;0.60;0.60;;;1.20;99.90;;;;;;5076105;28;20179;-66
2021/03/02 04:35:22;;;;;;;0.40;0.40;;;1.20;99.90;;;;;;5072578;28;20275;-65
2021/03/02 04:37:49;;;;;;;0.40;0.40;;;1.20;99.90;;;;;;5076461;28;20251;-65
2021/03/02 04:40:15;;;;;;;0.30;0.30;;;1.20;99.90;;;;;;5073923;28;20176;-65
2021/03/02 04:42:41;;;;;;;0.40;0.40;;;1.30;99.90;;;;;;5076398;28;20212;-65
2021/03/02 04:45:09;;;;;;;0.50;0.50;;;1.20;99.90;;;;;;5067463;28;20531;-65
2021/03/02 04:47:37;;;;;;;0.40;0.40;;;1.20;99.90;;;;;;5056267;28;20200;-65
2021/03/02 04:50:03;;;;;;;0.40;0.40;;;1.20;99.90;;;;;;5062659;28;20193;-66
2021/03/02 04:52:29;;;;;;;0.77;0.77;;;1.20;99.90;;;;;;5057099;28;20190;-65
2021/03/02 04:54:55;;;;;;;0.40;0.40;;;1.10;99.90;;;;;;5060795;28;20299;-67
2021/03/02 04:57:21;;;;;;;0.40;0.40;;;1.10;99.90;;;;;;5076241;28;20201;-65
2021/03/02 04:59:46;;;;;;;0.40;0.40;;;1.10;99.90;;;;;;5072003;28;20960;-65
2021/03/02 05:02:12;;;;;;;0.57;0.57;;;1.00;99.90;;;;;;5055902;28;20177;-66
2021/03/02 05:04:38;;;;;;;0.30;0.30;;;1.00;99.90;;;;;;5057134;28;20174;-65
2021/03/02 05:07:03;;;;;;;0.50;0.50;;;1.00;99.90;;;;;;5058473;28;20183;-66
2021/03/02 05:09:29;;;;;;;0.37;0.37;;;0.90;99.90;;;;;;5055755;28;20216;-65
2021/03/02 05:11:54;;;;;;;0.40;0.40;;;0.90;99.90;;;;;;5075950;28;20648;-65
2021/03/02 05:14:20;;;;;;;0.40;0.40;;;0.90;99.90;;;;;;5075337;28;20227;-66
2021/03/02 05:16:46;;;;;;;0.30;0.30;;;0.90;99.90;;;;;;5056799;28;20201;-66
2021/03/02 05:19:11;;;;;;;0.40;0.40;;;1.00;99.90;;;;;;5055628;28;20169;-66
2021/03/02 05:21:37;;;;;;;0.50;0.50;;;0.90;99.90;;;;;;5056011;28;20190;-66
2021/03/02 05:24:03;;;;;;;0.30;0.30;;;0.90;99.90;;;;;;5055148;28;20634;-66
2021/03/02 05:26:29;;;;;;;0.30;0.30;;;1.00;99.90;;;;;;5068877;28;20600;-65
2021/03/02 05:28:57;;;;;;;0.30;0.30;;;1.00;99.90;;;;;;5075315;28;20806;-66
2021/03/02 05:31:23;;;;;;;0.50;0.50;;;1.00;99.90;;;;;;5061280;28;20181;-65
2021/03/02 05:33:48;;;;;;;0.40;0.40;;;1.00;99.90;;;;;;5058143;28;20242;-65
2021/03/02 05:36:14;;;;;;;0.40;0.40;;;1.00;99.90;;;;;;5058972;28;20474;-66
2021/03/02 05:38:40;;;;;;;0.50;0.50;;;1.00;99.90;;;;;;5071449;28;20246;-66
2021/03/02 05:41:08;;;;;;;0.30;0.30;;;0.90;99.90;;;;;;5055358;28;20530;-65
2021/03/02 05:43:35;;;;;;;0.93;0.93;;;0.90;99.90;;;;;;5055508;28;20179;-66
2021/03/02 05:46:02;;;;;;;0.30;0.30;;;0.90;99.90;;;;;;5074833;28;20595;-65
2021/03/02 05:48:29;;;;;;;0.43;0.43;;;0.90;99.90;;;;;;5075212;28;20196;-65
2021/03/02 05:50:55;;;;;;;2.45;1.20;;;0.90;99.90;;;;;;5055412;28;20228;-64
2021/03/02 05:53:21;;;;;;;0.40;0.40;;;0.80;99.90;;;;;;5054729;28;20268;-65
2021/03/02 05:55:47;;;;;;;0.30;0.30;;;0.70;99.90;;;;;;5054304;28;20291;-65
2021/03/02 05:58:16;;;;;;;0.40;0.40;;;0.70;99.90;;;;;;5055550;28;20178;-66
2021/03/02 06:00:43;;;;;;;1.15;1.05;;;0.70;99.90;;;;;;5074862;28;20180;-66
2021/03/02 06:03:09;;;;;;;0.43;0.43;;;0.70;99.90;;;;;;5059823;28;20309;-67
2021/03/02 06:05:35;;;;;;;0.30;0.30;;;0.70;99.90;;;;;;5073813;28;20197;-64
2021/03/02 06:08:01;;;;;;;0.40;0.40;;;0.60;99.90;;;;;;5072849;28;20204;-66
2021/03/02 06:10:31;;;;;;;0.50;0.50;;;0.70;99.90;;;;;;5074259;28;20423;-67
2021/03/02 06:12:58;;;;;;;0.40;0.40;;;0.70;99.90;;;;;;5072896;28;20173;-67
2021/03/02 06:15:26;;;;;;;0.30;0.30;;;0.80;99.90;;;;;;5074042;28;20187;-66
2021/03/02 06:18:16;;;;;;;0.40;0.40;;;0.80;99.90;;;;;;5058319;28;20174;-66
2021/03/02 06:20:42;;;;;;;0.40;0.40;;;0.90;99.90;;;;;;5054333;28;20179;-66
2021/03/02 06:23:30;;;;;;;0.30;0.30;;;1.00;99.90;;;;;;5071658;28;20279;-66
2021/03/02 06:26:08;;;;;;;0.40;0.40;;;1.10;99.90;;;;;;5062718;28;20201;-66
2021/03/02 06:28:43;;;;;;;0.40;0.40;;;1.20;99.90;;;;;;5054255;28;20554;-69
2021/03/02 06:31:39;;;;;;;0.30;0.30;;;1.40;99.90;;;;;;5060272;28;20678;-65
2021/03/02 06:34:19;;;;;;;0.30;0.30;;;1.50;99.90;;;;;;5053774;28;20691;-65
2021/03/02 06:36:53;;;;;;;0.40;0.40;;;1.80;99.90;;;;;;5054486;28;20188;-65
2021/03/02 06:39:27;;;;;;;1.00;1.00;;;2.00;99.90;;;;;;5054221;28;20172;-65
2021/03/02 06:42:18;;;;;;;0.40;0.40;;;2.30;99.90;;;;;;5060935;28;20636;-68
2021/03/02 06:44:52;;;;;;;0.40;0.40;;;2.50;99.90;;;;;;5069359;28;20530;-68
2021/03/02 06:47:41;;;;;;;0.40;0.40;;;2.70;99.90;;;;;;5071087;28;20169;-69
2021/03/02 06:50:13;;;;;;;0.30;0.30;;;3.00;99.90;;;;;;5073146;28;20248;-68
2021/03/02 06:52:43;;;;;;;1.05;1.05;;;3.30;99.90;;;;;;5073982;28;20180;-68
2021/03/02 06:55:14;;;;;;;0.30;0.30;;;3.70;99.90;;;;;;5053803;28;20212;-68
2021/03/02 06:57:40;;;;;;;0.40;0.40;;;4.20;99.90;;;;;;5053590;28;20540;-68
2021/03/02 07:00:07;;;;;;;0.70;0.70;;;4.80;99.90;;;;;;5054753;28;20174;-68
2021/03/02 07:02:37;;;;;;;0.70;0.70;;;5.20;99.90;;;;;;5053446;28;20903;-69
2021/03/02 07:05:16;;;;;;;0.40;0.40;;;5.80;99.90;;;;;;5057241;28;20191;-67
2021/03/02 07:07:55;;;;;;;0.40;0.40;;;6.30;99.90;;;;;;5071915;28;20188;-68
2021/03/02 07:10:22;;;;;;;0.30;0.30;;;6.80;99.90;;;;;;5065529;28;20172;-68
2021/03/02 07:12:47;;;;;;;0.55;0.52;;;7.30;99.90;;;;;;5053459;28;20517;-68
2021/03/02 07:15:18;;;;;;;0.53;0.53;;;7.90;99.90;;;;;;5055843;28;20326;-67
2021/03/02 07:17:49;;;;;;;0.40;0.40;;;8.40;99.90;;;;;;5066476;28;20251;-68
2021/03/02 07:20:17;;;;;;;1.67;0.98;;;8.80;99.90;;;;;;5073332;28;20180;-67
2021/03/02 07:22:48;;;;;;;0.80;0.80;;;9.20;99.90;;;;;;5073090;28;20247;-67
2021/03/02 07:25:19;;;;;;;0.50;0.50;;;9.60;99.40;;;;;;5073020;28;20209;-67
2021/03/02 07:27:48;;;;;;;0.50;0.50;;;9.90;98.70;;;;;;5073546;28;20442;-68
2021/03/02 07:30:15;;;;;;;0.30;0.30;;;10.20;96.80;;;;;;5073247;28;20408;-67
2021/03/02 07:32:41;;;;;;;0.30;0.30;;;10.40;96.40;;;;;;5053548;28;20817;-68
2021/03/02 07:35:09;;;;;;;0.30;0.30;;;10.50;95.70;;;;;;5064835;28;20799;-67
2021/03/02 07:37:35;;;;;;;0.90;0.87;;;10.90;95.90;;;;;;5073255;28;20410;-68
2021/03/02 07:40:06;;;;;;;0.53;0.53;;;11.50;95.60;;;;;;5072960;28;20850;-68
2021/03/02 07:42:32;;;;;;;0.30;0.30;;;12.40;94.00;;;;;;5073110;28;20173;-70
2021/03/02 07:45:02;;;;;;;0.53;0.53;;;13.30;93.40;;;;;;5072650;28;20480;-68
2021/03/02 07:47:51;;;;;;;0.60;0.60;;;14.30;91.00;;;;;;5073092;28;20406;-70
2021/03/02 07:50:31;;;;;;;1.03;0.93;;;15.30;84.60;;;;;;5073146;28;20402;-69
2021/03/02 07:53:20;;;;;;;0.30;0.20;;;15.70;82.30;;;;;;5073137;28;20460;-68
2021/03/02 07:55:47;;;;;;;0.30;0.30;;;16.00;80.20;;;;;;5053982;28;20458;-68
2021/03/02 07:58:18;;;;;;;0.70;0.57;;;16.50;80.10;;;;;;5056973;28;20427;-68
2021/03/02 08:00:45;;;;;;;1.27;1.23;;;17.10;78.50;;;;;;5057160;28;20405;-68
2021/03/02 08:03:19;;;;;;;1.57;1.00;;;17.60;74.00;;;;;;5075900;28;20408;-68
2021/03/02 08:05:46;;;;;;;2.17;1.83;;;17.90;72.90;;;;;;5076706;28;20764;-69
2021/03/02 08:08:30;;;;;;;0.63;0.63;;;18.30;73.40;;;;;;5076778;28;20455;-68
2021/03/02 08:11:02;;;;;;;1.83;0.90;;;19.00;70.70;;;;;;5077102;28;20389;-73
2021/03/02 08:13:35;;;;;;;0.80;0.80;;;19.30;66.10;;;;;;5076844;28;20411;-73
2021/03/02 08:16:03;;;;;;;3.63;2.43;;;19.00;67.50;;;;;;5072738;28;20435;-73
2021/03/02 08:18:31;;;;;;;1.17;1.17;;;19.10;67.90;;;;;;5057335;28;20418;-72
2021/03/02 08:21:11;;;;;;;0.50;0.50;;;19.40;67.10;;;;;;5058089;28;20458;-73
2021/03/02 08:23:49;;;;;;;0.70;0.70;;;19.60;65.60;;;;;;5063148;28;20546;-68
2021/03/02 08:26:34;;;;;;;1.07;1.07;;;19.80;64.90;;;;;;5073113;28;20443;-70
2021/03/02 08:29:15;;;;;;;1.47;1.47;;;19.80;63.80;;;;;;5054778;28;20796;-67
2021/03/02 08:31:46;;;;;;;1.50;1.40;;;19.90;63.30;;;;;;5059951;28;20437;-69
2021/03/02 08:34:15;;;;;;;0.80;0.80;;;20.00;61.80;;;;;;5062101;28;20408;-69
2021/03/02 08:36:41;;;;;;;2.77;1.73;;;20.10;62.00;;;;;;5055670;28;20842;-68
2021/03/02 08:39:12;;;;;;;0.90;0.90;;;20.00;61.40;;;;;;5054359;28;20507;-68
2021/03/02 08:41:41;;;;;;;1.43;1.20;;;20.00;63.40;;;;;;5054818;28;20415;-69
2021/03/02 08:44:19;;;;;;;0.50;0.40;;;20.20;62.20;;;;;;5054837;28;20423;-69
2021/03/02 08:46:49;;;;;;;0.63;0.63;;;20.40;61.60;;;;;;5055527;28;20413;-68
2021/03/02 08:49:15;;;;;;;2.70;2.50;;;20.80;60.70;;;;;;5057851;28;20966;-69
2021/03/02 08:51:40;;;;;;;2.00;1.37;;;21.10;59.70;;;;;;5075743;28;20411;-69
2021/03/02 08:54:07;;;;;;;0.73;0.73;;;21.30;58.90;;;;;;5075778;28;20165;-69
2021/03/02 08:56:33;;;;;;;1.17;1.13;;;21.30;59.00;;;;;;5075900;28;20667;-68
2021/03/02 08:59:01;;;;;;;1.60;0.70;;;21.50;59.50;;;;;;5075577;28;20521;-69
2021/03/02 09:01:34;;;;;;;6.33;1.80;;;21.80;58.80;;;;;;5075908;28;20422;-68
2021/03/02 09:04:13;;;;;;;2.03;1.87;;;21.70;58.30;;;;;;5074487;28;20431;-69
2021/03/02 09:06:46;;;;;;;1.37;1.37;;;21.60;58.20;;;;;;5075481;28;20423;-67
2021/03/02 09:09:14;;;;;;;1.50;1.40;;;21.50;58.10;;;;;;5075729;28;20854;-69
2021/03/02 09:11:45;;;;;;;1.13;1.13;;;21.40;58.40;;;;;;5075818;28;20378;-68
2021/03/02 09:14:12;;;;;;;1.77;1.67;;;21.30;58.80;;;;;;5058515;28;20532;-69
2021/03/02 09:16:42;;;;;;;0.93;0.67;;;21.80;58.10;;;;;;5055695;28;20446;-69
2021/03/02 09:19:28;;;;;;;1.53;1.43;;;22.40;57.40;;;;;;5056363;28;20834;-67
2021/03/02 09:21:58;;;;;;;1.30;1.20;;;22.40;57.10;;;;;;5055548;28;20422;-69
2021/03/02 09:24:27;;;;;;;1.97;1.83;;;22.70;56.70;;;;;;5055134;28;20495;-69
2021/03/02 09:26:56;;;;;;;2.23;2.03;;;23.00;56.40;;;;;;5055421;28;20413;-70
2021/03/02 09:29:24;;;;;;;0.90;0.90;;;23.20;55.70;;;;;;5055520;28;20437;-68
2021/03/02 09:31:51;;;;;;;1.33;1.23;;;23.30;56.20;;;;;;5055330;28;20420;-71
2021/03/02 09:34:17;;;;;;;0.83;0.83;;;23.60;55.70;;;;;;5055215;28;20790;-69
2021/03/02 09:36:43;;;;;;;1.60;1.20;;;24.00;54.60;;;;;;5057924;28;20506;-68
2021/03/02 09:39:24;;;;;;;2.43;1.20;;;24.40;53.90;;;;;;5055757;28;20592;-69
2021/03/02 09:41:50;;;;;;;4.33;1.97;;;24.60;53.40;;;;;;5055314;28;20379;-68
2021/03/02 09:44:31;;;;;;;0.53;0.53;;;24.90;52.70;;;;;;5054783;28;20412;-68
2021/03/02 09:47:06;;;;;;;1.30;1.03;;;25.00;51.80;;;;;;5055280;28;20733;-68
2021/03/02 09:49:47;;;;;;;2.30;1.13;;;25.00;51.60;;;;;;5054010;28;20767;-67
2021/03/02 09:52:31;;;;;;;0.40;0.40;;;24.80;51.10;;;;;;5055214;28;20386;-68
2021/03/02 09:55:15;;;;;;;1.07;0.50;;;24.90;51.30;;;;;;5054336;28;20612;-69
2021/03/02 09:58:11;;;;;;;2.07;1.97;;;24.70;51.50;;;;;;5054849;28;20400;-68
2021/03/02 10:00:45;;;;;;;0.83;0.83;;;24.40;52.40;;;;;;5055172;28;20405;-69
2021/03/02 10:03:24;;;;;;;3.13;2.50;;;24.10;52.20;;;;;;5054907;28;20464;-68
2021/03/02 10:05:56;;;;;;;1.33;1.03;;;24.10;52.20;;;;;;5054370;28;20398;-68
2021/03/02 10:08:28;;;;;;;0.67;0.67;;;24.00;52.50;;;;;;5054549;28;20427;-69
2021/03/02 10:10:59;;;;;;;0.93;0.93;;;23.90;52.90;;;;;;5062573;28;20409;-69
2021/03/02 10:13:29;;;;;;;0.77;0.77;;;24.00;53.00;;;;;;5058428;28;20774;-68
2021/03/02 10:16:30;;;;;;;1.60;1.07;;;24.30;51.70;;;;;;5054047;28;20952;-69
2021/03/02 10:19:16;;;;;;;1.80;1.70;;;24.40;51.10;;;;;;5054088;28;21001;-70
2021/03/02 10:21:47;;;;;;;1.80;1.70;;;24.10;51.50;;;;;;5068547;28;20435;-69
2021/03/02 10:24:17;;;;;;;1.43;0.80;;;23.90;51.00;;;;;;5066580;28;20417;-67
2021/03/02 10:26:44;;;;;;;1.23;1.23;;;23.80;52.00;;;;;;5074016;28;20400;-67
2021/03/02 10:29:10;;;;;;;1.90;1.67;;;23.50;52.40;;;;;;5063109;28;20392;-67
2021/03/02 10:31:36;;;;;;;5.93;2.57;;;23.50;53.10;;;;;;5062268;28;20437;-68
2021/03/02 10:34:04;;;;;;;1.07;0.67;;;23.70;53.80;;;;;;5059449;28;20178;-69
2021/03/02 10:36:35;;;;;;;1.27;1.17;;;23.80;51.90;;;;;;5059830;28;20763;-68
2021/03/02 10:39:04;;;;;;;1.80;1.70;;;23.50;52.70;;;;;;5059936;28;20810;-67
2021/03/02 10:41:30;;;;;;;2.63;2.43;;;23.20;53.00;;;;;;5063699;28;20412;-67
2021/03/02 10:43:56;;;;;;;2.47;1.07;;;23.20;52.20;;;;;;5068639;28;20430;-67
2021/03/02 10:46:25;;;;;;;1.80;1.53;;;23.30;52.40;;;;;;5073405;28;20268;-67
2021/03/02 10:48:50;;;;;;;2.20;1.50;;;23.20;52.60;;;;;;5073543;28;20476;-68
2021/03/02 10:51:17;;;;;;;0.80;0.57;;;23.00;52.50;;;;;;5073625;28;20449;-68
2021/03/02 10:53:44;;;;;;;1.30;0.93;;;23.00;53.30;;;;;;5068770;28;20645;-68
2021/03/02 10:56:10;;;;;;;1.13;0.90;;;23.10;52.40;;;;;;5053527;28;20501;-68
2021/03/02 10:58:36;;;;;;;1.17;1.03;;;23.40;52.20;;;;;;5051552;28;20422;-67
2021/03/02 11:01:03;;;;;;;1.40;1.33;;;23.40;51.60;;;;;;5051634;28;20419;-68
2021/03/02 11:03:29;;;;;;;3.50;1.30;;;23.20;51.90;;;;;;5052714;28;20231;-69
2021/03/02 11:05:54;;;;;;;1.43;1.43;;;23.30;51.60;;;;;;5051786;28;20418;-69
2021/03/02 11:08:21;;;;;;;1.93;1.30;;;23.50;51.20;;;;;;5070011;28;20227;-69
2021/03/02 11:10:48;;;;;;;1.27;1.17;;;23.40;50.60;;;;;;5073588;28;20165;-68
2021/03/02 11:13:14;;;;;;;2.00;1.90;;;22.50;51.20;;;;;;5065105;28;20403;-68
2021/03/02 11:15:40;;;;;;;1.60;1.40;;;21.90;51.90;;;;;;5063362;28;20407;-67
2021/03/02 11:18:07;;;;;;;1.27;1.17;;;21.60;52.10;;;;;;5061318;28;20453;-69
2021/03/02 11:20:37;;;;;;;1.90;1.73;;;21.40;52.40;;;;;;5053770;28;20805;-68
2021/03/02 11:23:03;;;;;;;1.17;0.60;;;21.10;52.40;;;;;;5053364;28;20420;-68
2021/03/02 11:25:29;;;;;;;1.10;1.10;;;20.90;53.20;;;;;;5052925;28;20780;-68
2021/03/02 11:27:55;;;;;;;2.10;2.00;;;20.60;53.70;;;;;;5053198;28;20176;-69
2021/03/02 11:30:21;;;;;;;2.00;1.87;;;20.00;54.60;;;;;;5055207;28;20439;-68
2021/03/02 11:32:47;;;;;;;0.43;0.43;;;19.00;55.70;;;;;;5072755;28;20271;-71
2021/03/02 11:35:13;;;;;;;1.53;1.43;;;18.20;56.70;;;;;;5072698;28;20455;-67
2021/03/02 11:37:41;;;;;;;1.03;0.73;;;17.50;57.30;;;;;;5073117;28;20879;-68
2021/03/02 11:40:13;;;;;;;2.10;2.00;;;17.10;57.80;;;;;;5071889;28;20438;-69
2021/03/02 11:42:39;;;;;;;1.27;1.27;;;16.60;59.30;;;;;;5073108;28;20935;-69
2021/03/02 11:45:07;;;;;;;0.30;0.30;;;16.50;58.80;;;;;;5070555;28;20431;-69
2021/03/02 11:47:34;;;;;;;0.73;0.60;;;16.30;59.20;;;;;;5051739;28;20596;-68
2021/03/02 11:50:00;;;;;;;0.80;0.60;;;15.90;59.80;;;;;;5053186;28;20811;-72
2021/03/02 11:52:26;;;;;;;1.10;1.10;;;15.60;60.90;;;;;;5052991;28;20450;-70
2021/03/02 11:54:52;;;;;;;2.93;2.73;;;15.40;60.40;;;;;;5052824;28;21048;-70
2021/03/02 11:57:18;;;;;;;0.73;0.73;;;15.30;61.70;;;;;;5053047;28;20466;-71
2021/03/02 11:59:46;;;;;;;1.23;1.23;;;15.20;61.80;;;;;;5053976;28;20451;-73
2021/03/02 12:02:14;;;;;;;0.30;0.30;;;15.00;62.20;;;;;;5063577;28;20426;-73
2021/03/02 12:04:41;;;;;;;0.80;0.80;;;14.90;61.90;;;;;;5071288;28;20775;-68
2021/03/02 12:07:11;;;;;;;0.30;0.30;;;14.80;60.40;;;;;;5072869;28;20399;-72
2021/03/02 12:09:37;;;;;;;0.50;0.50;;;14.80;60.60;;;;;;5071616;28;20925;-70
2021/03/02 12:12:04;;;;;;;0.83;0.83;;;14.80;61.00;;;;;;5072782;28;20489;-69
2021/03/02 12:14:30;;;;;;;3.03;2.93;;;14.70;61.80;;;;;;5070649;28;20416;-71
2021/03/02 12:16:56;;;;;;;1.73;0.83;;;14.70;62.90;;;;;;5051982;28;20810;-70
2021/03/02 12:19:22;;;;;;;1.10;0.87;;;14.60;62.40;;;;;;5052676;28;20454;-69
2021/03/02 12:21:48;;;;;;;0.60;0.60;;;14.70;63.00;;;;;;5052888;28;20401;-70
2021/03/02 12:24:14;;;;;;;0.50;0.50;;;14.70;62.20;;;;;;5052598;28;20168;-71
2021/03/02 12:26:39;;;;;;;0.73;0.70;;;14.70;60.70;;;;;;5058555;28;20207;-70
2021/03/02 12:29:07;;;;;;;0.30;0.30;;;14.70;61.30;;;;;;5072796;28;20403;-66
2021/03/02 12:31:32;;;;;;;2.53;0.73;;;14.70;60.00;;;;;;5072563;28;20652;-67
2021/03/02 12:33:58;;;;;;;0.93;0.87;;;14.70;60.10;;;;;;5072485;28;20427;-66
2021/03/02 12:36:24;;;;;;;0.40;0.40;;;14.80;60.00;;;;;;5072612;28;20221;-67
2021/03/02 12:38:49;;;;;;;1.27;1.17;;;14.80;59.30;;;;;;5066090;28;20193;-66
2021/03/02 12:41:15;;;;;;;0.50;0.50;;;14.80;58.90;;;;;;5053054;28;20171;-68
2021/03/02 12:43:41;;;;;;;1.03;0.93;;;14.80;59.20;;;;;;5054904;28;20229;-69
2021/03/02 12:46:06;;;;;;;0.73;0.73;;;14.80;59.80;;;;;;5054724;28;20214;-69
2021/03/02 12:48:32;;;;;;;0.40;0.40;;;14.80;60.50;;;;;;5055980;28;20170;-67
2021/03/02 12:50:58;;;;;;;0.30;0.30;;;14.90;61.10;;;;;;5056591;28;20686;-67
2021/03/02 12:53:24;;;;;;;0.30;0.30;;;14.90;61.00;;;;;;5060508;28;20265;-68
2021/03/02 12:55:50;;;;;;;0.60;0.60;;;15.10;61.70;;;;;;5075464;28;20496;-68
2021/03/02 12:58:15;;;;;;;0.30;0.30;;;15.20;62.70;;;;;;5074693;28;20192;-68
2021/03/02 13:00:41;;;;;;;0.63;0.63;;;15.10;62.70;;;;;;5074095;28;20171;-67
2021/03/02 13:03:07;;;;;;;0.37;0.30;;;15.10;63.20;;;;;;5075131;28;20176;-68